Time;durP1;ratioP1;P1;durP2;ratioP2;P2;SDS_P1;SDS_P2;PMS_P1;PMS_P2;Temp;Humidity;BMP_temperature;BMP_pressure;BME280_temperature;BME280_humidity;BME280_pressure;Samples;Min_cycle;Max_cycle;Signal;HPM_P1;HPM_P2
2022/04/07 00:01:35;;;;;;;;;;;;;;;;;;5053023;28;19995;-55
2022/04/07 00:04:01;;;;;;;;;;;;;;;;;;5037766;28;19913;-55
2022/04/07 00:06:26;;;;;;;;;;;;;;;;;;5037406;28;19911;-54
2022/04/07 00:08:51;;;;;;;;;;;;;;;;;;5037665;28;19974;-53
2022/04/07 00:11:16;;;;;;;;;;;;;;;;;;5037481;28;19913;-53
2022/04/07 00:13:42;;;;;;;;;;;;;;;;;;5037335;28;19921;-54
2022/04/07 00:16:08;;;;;;;;;;;;;;;;;;5037292;28;19916;-54
2022/04/07 00:18:33;;;;;;;;;;;;;;;;;;5037092;28;19913;-55
2022/04/07 00:20:59;;;;;;;;;;;;;;;;;;5037184;28;19916;-54
2022/04/07 00:23:25;;;;;;;;;;;;;;;;;;5037951;28;19913;-54
2022/04/07 00:25:50;;;;;;;;;;;;;;;;;;5052381;28;19909;-55
2022/04/07 00:28:15;;;;;;;;;;;;;;;;;;5037328;28;19951;-54
2022/04/07 00:30:41;;;;;;;;;;;;;;;;;;5037023;28;19909;-55
2022/04/07 00:33:07;;;;;;;;;;;;;;;;;;5037255;28;20389;-55
2022/04/07 00:35:32;;;;;;;;;;;;;;;;;;5037131;28;20020;-56
2022/04/07 00:37:57;;;;;;;;;;;;;;;;;;5036999;28;20298;-55
2022/04/07 00:40:22;;;;;;;;;;;;;;;;;;5037277;28;19916;-54
2022/04/07 00:42:48;;;;;;;;;;;;;;;;;;5037101;28;20000;-55
2022/04/07 00:45:13;;;;;;;;;;;;;;;;;;5052394;28;19962;-55
2022/04/07 00:47:38;;;;;;;;;;;;;;;;;;5037282;28;20227;-56
2022/04/07 00:50:03;;;;;;;;;;;;;;;;;;5036681;28;20273;-54
2022/04/07 00:52:30;;;;;;;;;;;;;;;;;;5036499;28;20285;-57
2022/04/07 00:54:55;;;;;;;;;;;;;;;;;;5035583;28;20249;-55
2022/04/07 00:57:21;;;;;;;;;;;;;;;;;;5037123;28;19909;-57
2022/04/07 00:59:46;;;;;;;;;;;;;;;;;;5036712;28;19955;-56
2022/04/07 01:02:11;;;;;;;;;;;;;;;;;;5049701;28;19905;-56
2022/04/07 01:04:37;;;;;;;;;;;;;;;;;;5036847;28;19959;-55
2022/04/07 01:07:02;;;;;;;;;;;;;;;;;;5036613;28;19964;-55
2022/04/07 01:09:28;;;;;;;;;;;;;;;;;;5036593;28;19932;-55
2022/04/07 01:11:53;;;;;;;;;;;;;;;;;;5035606;28;19913;-55
2022/04/07 01:14:19;;;;;;;;;;;;;;;;;;5036399;28;20245;-55
2022/04/07 01:16:44;;;;;;;;;;;;;;;;;;5036520;28;19913;-56
2022/04/07 01:19:09;;;;;;;;;;;;;;;;;;5036985;28;19921;-56
2022/04/07 01:21:34;;;;;;;;;;;;;;;;;;5034764;28;20003;-54
2022/04/07 01:23:59;;;;;;;;;;;;;;;;;;5036842;28;20006;-55
2022/04/07 01:26:25;;;;;;;;;;;;;;;;;;5036861;28;19909;-54
2022/04/07 01:28:50;;;;;;;;;;;;;;;;;;5036843;28;19963;-55
2022/04/07 01:31:15;;;;;;;;;;;;;;;;;;5036195;28;19940;-55
2022/04/07 01:33:41;;;;;;;;;;;;;;;;;;5036278;28;19921;-55
2022/04/07 01:36:06;;;;;;;;;;;;;;;;;;5036128;28;20358;-55
2022/04/07 01:38:31;;;;;;;;;;;;;;;;;;5034788;28;19909;-56
2022/04/07 01:40:56;;;;;;;;;;;;;;;;;;5035959;28;19909;-55
2022/04/07 01:43:22;;;;;;;;;;;;;;;;;;5035897;28;20003;-54
2022/04/07 01:45:47;;;;;;;;;;;;;;;;;;5035594;28;20380;-57
2022/04/07 01:48:12;;;;;;;;;;;;;;;;;;5035551;28;20270;-55
2022/04/07 01:50:38;;;;;;;;;;;;;;;;;;5035744;28;19924;-55
2022/04/07 01:53:03;;;;;;;;;;;;;;;;;;5067813;28;20289;-56
2022/04/07 01:55:28;;;;;;;;;;;;;;;;;;5035585;28;19909;-57
2022/04/07 01:57:53;;;;;;;;;;;;;;;;;;5035595;28;19909;-56
2022/04/07 02:00:18;;;;;;;;;;;;;;;;;;5033367;28;20262;-56
2022/04/07 02:02:45;;;;;;;;;;;;;;;;;;5035810;28;20257;-56
2022/04/07 02:05:11;;;;;;;;;;;;;;;;;;5035149;28;20322;-56
2022/04/07 02:07:37;;;;;;;;;;;;;;;;;;5035094;28;19919;-56
2022/04/07 02:10:02;;;;;;;;;;;;;;;;;;5051282;28;19909;-56
2022/04/07 02:12:29;;;;;;;;;;;;;;;;;;5035265;28;20008;-56
2022/04/07 02:14:54;;;;;;;;;;;;;;;;;;5040840;28;19923;-55
2022/04/07 02:17:22;;;;;;;;;;;;;;;;;;5052937;28;19905;-55
2022/04/07 02:19:48;;;;;;;;;;;;;;;;;;5052829;28;19983;-55
2022/04/07 02:22:13;;;;;;;;;;;;;;;;;;5054798;28;20285;-56
2022/04/07 02:24:40;;;;;;;;;;;;;;;;;;5054657;28;19908;-56
2022/04/07 02:27:06;;;;;;;;;;;;;;;;;;5054964;28;19951;-58
2022/04/07 02:29:31;;;;;;;;;;;;;;;;;;5070292;28;19909;-56
2022/04/07 02:31:56;;;;;;;;;;;;;;;;;;5070211;28;19962;-55
2022/04/07 02:34:21;;;;;;;;;;;;;;;;;;5070058;28;19950;-56
2022/04/07 02:36:46;;;;;;;;;;;;;;;;;;5054499;28;20023;-55
2022/04/07 02:39:12;;;;;;;;;;;;;;;;;;5054834;28;20377;-56
2022/04/07 02:41:37;;;;;;;;;;;;;;;;;;5055045;28;19948;-56
2022/04/07 02:44:02;;;;;;;;;;;;;;;;;;5054990;28;19970;-56
2022/04/07 02:46:27;;;;;;;;;;;;;;;;;;5054678;28;19948;-56
2022/04/07 02:48:53;;;;;;;;;;;;;;;;;;5054577;28;19909;-54
2022/04/07 02:51:18;;;;;;;;;;;;;;;;;;5053238;28;19962;-55
2022/04/07 02:53:43;;;;;;;;;;;;;;;;;;5070227;28;19959;-55
2022/04/07 02:56:08;;;;;;;;;;;;;;;;;;5070689;28;19909;-56
2022/04/07 02:58:33;;;;;;;;;;;;;;;;;;5054139;28;19909;-56
2022/04/07 03:00:59;;;;;;;;;;;;;;;;;;5054044;28;20003;-55
2022/04/07 03:03:24;;;;;;;;;;;;;;;;;;5054084;28;20000;-56
2022/04/07 03:05:49;;;;;;;;;;;;;;;;;;5054017;28;20062;-55
2022/04/07 03:08:15;;;;;;;;;;;;;;;;;;5053555;28;19919;-56
2022/04/07 03:10:40;;;;;;;;;;;;;;;;;;5053895;28;20349;-56
2022/04/07 03:13:05;;;;;;;;;;;;;;;;;;5052940;28;19913;-55
2022/04/07 03:15:30;;;;;;;;;;;;;;;;;;5053899;28;19977;-56
2022/04/07 03:17:55;;;;;;;;;;;;;;;;;;5054199;28;19923;-56
2022/04/07 03:20:21;;;;;;;;;;;;;;;;;;5065670;28;19971;-55
2022/04/07 03:22:46;;;;;;;;;;;;;;;;;;5034146;28;19909;-56
2022/04/07 03:25:11;;;;;;;;;;;;;;;;;;5033715;28;19936;-56
2022/04/07 03:27:36;;;;;;;;;;;;;;;;;;5034976;28;20003;-56
2022/04/07 03:30:03;;;;;;;;;;;;;;;;;;5037657;28;20003;-56
2022/04/07 03:32:28;;;;;;;;;;;;;;;;;;5053648;28;19967;-56
2022/04/07 03:34:54;;;;;;;;;;;;;;;;;;5056195;28;19952;-56
2022/04/07 03:37:20;;;;;;;;;;;;;;;;;;5040095;28;19909;-56
2022/04/07 03:39:45;;;;;;;;;;;;;;;;;;5040902;28;19956;-56
2022/04/07 03:42:11;;;;;;;;;;;;;;;;;;5040642;28;19905;-56
2022/04/07 03:44:36;;;;;;;;;;;;;;;;;;5041221;28;19951;-56
2022/04/07 03:47:01;;;;;;;;;;;;;;;;;;5039876;28;20004;-56
2022/04/07 03:49:26;;;;;;;;;;;;;;;;;;5040578;28;20007;-56
2022/04/07 03:51:52;;;;;;;;;;;;;;;;;;5040187;28;20008;-56
2022/04/07 03:54:17;;;;;;;;;;;;;;;;;;5055904;28;19962;-56
2022/04/07 03:56:42;;;;;;;;;;;;;;;;;;5040203;28;19917;-56
2022/04/07 03:59:07;;;;;;;;;;;;;;;;;;5055649;28;20334;-56
2022/04/07 04:01:33;;;;;;;;;;;;;;;;;;5040136;28;19909;-56
2022/04/07 04:03:58;;;;;;;;;;;;;;;;;;5056174;28;20396;-56
2022/04/07 04:06:23;;;;;;;;;;;;;;;;;;5040371;28;19909;-56
2022/04/07 04:08:48;;;;;;;;;;;;;;;;;;5055545;28;19916;-56
2022/04/07 04:11:14;;;;;;;;;;;;;;;;;;5040492;28;20338;-56
2022/04/07 04:13:39;;;;;;;;;;;;;;;;;;5040059;28;19913;-56
2022/04/07 04:16:04;;;;;;;;;;;;;;;;;;5040390;28;19913;-56
2022/04/07 04:18:29;;;;;;;;;;;;;;;;;;5039979;28;20000;-56
2022/04/07 04:20:55;;;;;;;;;;;;;;;;;;5040000;28;20004;-56
2022/04/07 04:23:20;;;;;;;;;;;;;;;;;;5039989;28;19909;-55
2022/04/07 04:25:46;;;;;;;;;;;;;;;;;;5039964;28;19913;-56
2022/04/07 04:28:11;;;;;;;;;;;;;;;;;;5055652;28;19996;-56
2022/04/07 04:30:37;;;;;;;;;;;;;;;;;;5055778;28;20007;-56
2022/04/07 04:33:02;;;;;;;;;;;;;;;;;;5040531;28;19913;-56
2022/04/07 04:35:27;;;;;;;;;;;;;;;;;;5040230;28;19909;-56
2022/04/07 04:37:52;;;;;;;;;;;;;;;;;;5055941;28;20350;-54
2022/04/07 04:40:18;;;;;;;;;;;;;;;;;;5072408;28;19915;-56
2022/04/07 04:42:43;;;;;;;;;;;;;;;;;;5060123;28;19909;-56
2022/04/07 04:45:09;;;;;;;;;;;;;;;;;;5060450;28;19909;-56
2022/04/07 04:47:34;;;;;;;;;;;;;;;;;;5056771;28;19912;-55
2022/04/07 04:49:59;;;;;;;;;;;;;;;;;;5056696;28;19909;-56
2022/04/07 04:52:25;;;;;;;;;;;;;;;;;;5056863;28;19917;-56
2022/04/07 04:54:50;;;;;;;;;;;;;;;;;;5056868;28;20428;-56
2022/04/07 04:57:15;;;;;;;;;;;;;;;;;;5069719;28;19923;-57
2022/04/07 04:59:40;;;;;;;;;;;;;;;;;;5057220;28;19908;-58
2022/04/07 05:02:05;;;;;;;;;;;;;;;;;;5056728;28;19928;-57
2022/04/07 05:04:31;;;;;;;;;;;;;;;;;;5056700;28;19908;-57
2022/04/07 05:06:57;;;;;;;;;;;;;;;;;;5052412;28;20261;-57
2022/04/07 05:09:22;;;;;;;;;;;;;;;;;;5036732;28;19909;-57
2022/04/07 05:11:47;;;;;;;;;;;;;;;;;;5036859;28;19964;-57
2022/04/07 05:14:12;;;;;;;;;;;;;;;;;;5036586;28;19921;-57
2022/04/07 05:16:37;;;;;;;;;;;;;;;;;;5036757;28;19909;-57
2022/04/07 05:19:03;;;;;;;;;;;;;;;;;;5036604;28;19920;-57
2022/04/07 05:21:28;;;;;;;;;;;;;;;;;;5036679;28;19909;-57
2022/04/07 05:23:53;;;;;;;;;;;;;;;;;;5036889;28;19906;-57
2022/04/07 05:26:18;;;;;;;;;;;;;;;;;;5051673;28;19953;-57
2022/04/07 05:28:43;;;;;;;;;;;;;;;;;;5036511;28;19910;-57
2022/04/07 05:31:09;;;;;;;;;;;;;;;;;;5035760;28;19913;-59
2022/04/07 05:33:34;;;;;;;;;;;;;;;;;;5035839;28;20039;-57
2022/04/07 05:35:59;;;;;;;;;;;;;;;;;;5060841;28;19912;-57
2022/04/07 05:38:24;;;;;;;;;;;;;;;;;;5056244;28;19944;-57
2022/04/07 05:40:49;;;;;;;;;;;;;;;;;;5044832;28;20007;-57
2022/04/07 05:43:15;;;;;;;;;;;;;;;;;;5035633;28;20018;-57
2022/04/07 05:45:42;;;;;;;;;;;;;;;;;;5035845;28;19909;-57
2022/04/07 05:48:07;;;;;;;;;;;;;;;;;;5035809;28;19916;-57
2022/04/07 05:50:32;;;;;;;;;;;;;;;;;;5035459;28;19905;-57
2022/04/07 05:52:57;;;;;;;;;;;;;;;;;;5035678;28;20243;-57
2022/04/07 05:55:23;;;;;;;;;;;;;;;;;;5035666;28;19916;-57
2022/04/07 05:57:49;;;;;;;;;;;;;;;;;;5050894;28;19916;-57
2022/04/07 06:00:16;;;;;;;;;;;;;;;;;;5035560;28;19905;-57
2022/04/07 06:02:42;;;;;;;;;;;;;;;;;;5035224;28;20270;-57
2022/04/07 06:05:07;;;;;;;;;;;;;;;;;;5035444;28;19909;-57
2022/04/07 06:07:32;;;;;;;;;;;;;;;;;;5035153;28;19909;-57
2022/04/07 06:09:57;;;;;;;;;;;;;;;;;;5035332;28;19916;-57
2022/04/07 06:12:23;;;;;;;;;;;;;;;;;;5035185;28;19919;-57
2022/04/07 06:14:48;;;;;;;;;;;;;;;;;;5035556;28;19914;-57
2022/04/07 06:17:13;;;;;;;;;;;;;;;;;;5067250;28;19909;-58
2022/04/07 06:19:38;;;;;;;;;;;;;;;;;;5034719;28;19913;-57
2022/04/07 06:22:05;;;;;;;;;;;;;;;;;;5030256;28;19995;-57
2022/04/07 06:24:30;;;;;;;;;;;;;;;;;;5035539;28;20039;-56
2022/04/07 06:26:55;;;;;;;;;;;;;;;;;;5035938;28;20000;-56
2022/04/07 06:29:20;;;;;;;;;;;;;;;;;;5067222;28;19908;-58
2022/04/07 06:31:46;;;;;;;;;;;;;;;;;;5066899;28;20014;-58
2022/04/07 06:34:11;;;;;;;;;;;;;;;;;;5050332;28;19913;-58
2022/04/07 06:36:36;;;;;;;;;;;;;;;;;;5043504;28;19909;-58
2022/04/07 06:39:01;;;;;;;;;;;;;;;;;;5043838;28;19937;-58
2022/04/07 06:41:27;;;;;;;;;;;;;;;;;;5033613;28;19909;-58
2022/04/07 06:43:52;;;;;;;;;;;;;;;;;;5054370;28;19916;-58
2022/04/07 06:46:17;;;;;;;;;;;;;;;;;;5051906;28;20003;-58
2022/04/07 06:48:42;;;;;;;;;;;;;;;;;;5054626;28;20003;-58
2022/04/07 06:51:09;;;;;;;;;;;;;;;;;;5054792;28;19913;-58
2022/04/07 06:53:34;;;;;;;;;;;;;;;;;;5054601;28;20333;-58
2022/04/07 06:55:59;;;;;;;;;;;;;;;;;;5054471;28;19916;-57
2022/04/07 06:58:25;;;;;;;;;;;;;;;;;;5054685;28;19974;-57
2022/04/07 07:00:50;;;;;;;;;;;;;;;;;;5054153;28;19904;-57
2022/04/07 07:03:15;;;;;;;;;;;;;;;;;;5051931;28;19915;-57
2022/04/07 07:05:41;;;;;;;;;;;;;;;;;;5054670;28;19905;-57
2022/04/07 07:08:06;;;;;;;;;;;;;;;;;;5051545;28;19909;-57
2022/04/07 07:10:31;;;;;;;;;;;;;;;;;;5039169;28;20305;-56
2022/04/07 07:12:59;;;;;;;;;;;;;;;;;;5050447;28;19913;-57
2022/04/07 07:15:24;;;;;;;;;;;;;;;;;;5034602;28;19905;-56
2022/04/07 07:17:51;;;;;;;;;;;;;;;;;;5051911;28;19916;-56
2022/04/07 07:20:18;;;;;;;;;;;;;;;;;;5054974;28;19912;-56
2022/04/07 07:22:43;;;;;;;;;;;;;;;;;;5054657;28;20003;-56
2022/04/07 07:25:08;;;;;;;;;;;;;;;;;;5054072;28;19967;-58
2022/04/07 07:27:34;;;;;;;;;;;;;;;;;;5054014;28;19912;-56
2022/04/07 07:29:59;;;;;;;;;;;;;;;;;;5054325;28;19959;-57
2022/04/07 07:32:24;;;;;;;;;;;;;;;;;;5053629;28;20025;-56
2022/04/07 07:34:49;;;;;;;;;;;;;;;;;;5051325;28;19983;-57
2022/04/07 07:37:14;;;;;;;;;;;;;;;;;;5069477;28;20362;-56
2022/04/07 07:39:40;;;;;;;;;;;;;;;;;;5053916;28;19908;-57
2022/04/07 07:42:05;;;;;;;;;;;;;;;;;;5054232;28;19919;-56
2022/04/07 07:44:30;;;;;;;;;;;;;;;;;;5053629;28;20373;-56
2022/04/07 07:46:55;;;;;;;;;;;;;;;;;;5069348;28;20261;-56
2022/04/07 07:49:20;;;;;;;;;;;;;;;;;;5069262;28;19939;-56
2022/04/07 07:51:47;;;;;;;;;;;;;;;;;;5069243;28;20277;-56
2022/04/07 07:54:13;;;;;;;;;;;;;;;;;;5044591;28;19996;-56
2022/04/07 07:56:38;;;;;;;;;;;;;;;;;;5034342;28;19963;-56
2022/04/07 07:59:03;;;;;;;;;;;;;;;;;;5033911;28;20001;-57
2022/04/07 08:01:28;;;;;;;;;;;;;;;;;;5066558;28;19912;-56
2022/04/07 08:03:53;;;;;;;;;;;;;;;;;;5033677;28;19970;-56
2022/04/07 08:06:19;;;;;;;;;;;;;;;;;;5059862;28;20353;-56
2022/04/07 08:08:44;;;;;;;;;;;;;;;;;;5054505;28;19905;-57
2022/04/07 08:11:09;;;;;;;;;;;;;;;;;;5069519;28;20360;-57
2022/04/07 08:13:34;;;;;;;;;;;;;;;;;;5068654;28;19909;-56
2022/04/07 08:16:00;;;;;;;;;;;;;;;;;;5053528;28;19909;-56
2022/04/07 08:18:25;;;;;;;;;;;;;;;;;;5053176;28;20443;-56
2022/04/07 08:20:50;;;;;;;;;;;;;;;;;;5053682;28;19913;-56
2022/04/07 08:23:15;;;;;;;;;;;;;;;;;;5056440;28;19913;-57
2022/04/07 08:25:40;;;;;;;;;;;;;;;;;;5043017;28;19952;-57
2022/04/07 08:28:06;;;;;;;;;;;;;;;;;;5037578;28;19993;-56
2022/04/07 08:30:34;;;;;;;;;;;;;;;;;;5037176;28;19916;-57
2022/04/07 08:32:59;;;;;;;;;;;;;;;;;;5052606;28;19913;-57
2022/04/07 08:35:24;;;;;;;;;;;;;;;;;;5036872;28;19909;-57
2022/04/07 08:37:50;;;;;;;;;;;;;;;;;;5037116;28;19909;-57
2022/04/07 08:40:16;;;;;;;;;;;;;;;;;;5035595;28;19936;-57
2022/04/07 08:42:41;;;;;;;;;;;;;;;;;;5037152;28;20007;-57
2022/04/07 08:45:06;;;;;;;;;;;;;;;;;;5032453;28;20051;-57
2022/04/07 08:47:33;;;;;;;;;;;;;;;;;;5037046;28;19995;-57
2022/04/07 08:49:58;;;;;;;;;;;;;;;;;;5037023;28;19996;-56
2022/04/07 08:52:24;;;;;;;;;;;;;;;;;;5036849;28;20369;-56
2022/04/07 08:54:49;;;;;;;;;;;;;;;;;;5055202;28;20007;-57
2022/04/07 08:57:14;;;;;;;;;;;;;;;;;;5056538;28;19908;-56
2022/04/07 08:59:40;;;;;;;;;;;;;;;;;;5056363;28;19911;-57
2022/04/07 09:02:05;;;;;;;;;;;;;;;;;;5057286;28;19928;-57
2022/04/07 09:04:31;;;;;;;;;;;;;;;;;;5057232;28;19905;-56
2022/04/07 09:06:56;;;;;;;;;;;;;;;;;;5056650;28;19912;-56
2022/04/07 09:09:22;;;;;;;;;;;;;;;;;;5055311;28;19915;-56
2022/04/07 09:11:47;;;;;;;;;;;;;;;;;;5055966;28;20000;-56
2022/04/07 09:14:13;;;;;;;;;;;;;;;;;;5056749;28;19931;-56
2022/04/07 09:16:38;;;;;;;;;;;;;;;;;;5071999;28;19908;-56
2022/04/07 09:19:03;;;;;;;;;;;;;;;;;;5056603;28;20218;-57
2022/04/07 09:21:28;;;;;;;;;;;;;;;;;;5053667;28;20361;-57
2022/04/07 09:23:55;;;;;;;;;;;;;;;;;;5070810;28;20421;-57
2022/04/07 09:26:21;;;;;;;;;;;;;;;;;;5071729;28;19979;-57
2022/04/07 09:28:46;;;;;;;;;;;;;;;;;;5056437;28;20253;-56
2022/04/07 09:31:11;;;;;;;;;;;;;;;;;;5055816;28;20269;-57
2022/04/07 09:33:36;;;;;;;;;;;;;;;;;;5055306;28;20376;-57
2022/04/07 09:36:01;;;;;;;;;;;;;;;;;;5071434;28;20244;-57
2022/04/07 09:38:27;;;;;;;;;;;;;;;;;;5050704;28;20252;-57
2022/04/07 09:40:52;;;;;;;;;;;;;;;;;;5055883;28;19959;-57
2022/04/07 09:43:17;;;;;;;;;;;;;;;;;;5056189;28;19944;-57
2022/04/07 09:45:42;;;;;;;;;;;;;;;;;;5055579;28;20003;-57
2022/04/07 09:48:07;;;;;;;;;;;;;;;;;;5040500;28;19954;-57
2022/04/07 09:50:33;;;;;;;;;;;;;;;;;;5050979;28;19955;-57
2022/04/07 09:52:58;;;;;;;;;;;;;;;;;;5036028;28;19960;-55
2022/04/07 09:55:23;;;;;;;;;;;;;;;;;;5035001;28;19912;-57
2022/04/07 09:57:49;;;;;;;;;;;;;;;;;;5035658;28;19932;-57
2022/04/07 10:00:14;;;;;;;;;;;;;;;;;;5035214;28;19995;-57
2022/04/07 10:02:39;;;;;;;;;;;;;;;;;;5035406;28;20005;-57
2022/04/07 10:05:04;;;;;;;;;;;;;;;;;;5035542;28;19905;-57
2022/04/07 10:07:30;;;;;;;;;;;;;;;;;;5033447;28;19913;-57
2022/04/07 10:09:55;;;;;;;;;;;;;;;;;;5035360;28;19905;-57
2022/04/07 10:12:20;;;;;;;;;;;;;;;;;;5035198;28;20253;-57
2022/04/07 10:14:45;;;;;;;;;;;;;;;;;;5054017;28;19938;-58
2022/04/07 10:17:11;;;;;;;;;;;;;;;;;;5071318;28;19944;-58
2022/04/07 10:19:36;;;;;;;;;;;;;;;;;;5055196;28;19967;-58
2022/04/07 10:22:01;;;;;;;;;;;;;;;;;;5055231;28;19923;-58
2022/04/07 10:24:26;;;;;;;;;;;;;;;;;;5054808;28;19909;-58
2022/04/07 10:26:52;;;;;;;;;;;;;;;;;;5054851;28;19905;-58
2022/04/07 10:29:17;;;;;;;;;;;;;;;;;;5055382;28;19916;-58
2022/04/07 10:31:42;;;;;;;;;;;;;;;;;;5054915;28;20003;-58
2022/04/07 10:34:07;;;;;;;;;;;;;;;;;;5054996;28;20019;-58
2022/04/07 10:36:32;;;;;;;;;;;;;;;;;;5054857;28;20061;-58
2022/04/07 10:38:58;;;;;;;;;;;;;;;;;;5054827;28;19916;-58
2022/04/07 10:41:23;;;;;;;;;;;;;;;;;;5052821;28;19909;-58
2022/04/07 10:43:48;;;;;;;;;;;;;;;;;;5054747;28;20007;-58
2022/04/07 10:46:14;;;;;;;;;;;;;;;;;;5054499;28;19916;-57
2022/04/07 10:48:39;;;;;;;;;;;;;;;;;;5054611;28;19913;-58
2022/04/07 10:51:05;;;;;;;;;;;;;;;;;;5054589;28;19909;-58
2022/04/07 10:53:30;;;;;;;;;;;;;;;;;;5053278;28;20265;-57
2022/04/07 10:55:55;;;;;;;;;;;;;;;;;;5070621;28;19912;-58
2022/04/07 10:58:21;;;;;;;;;;;;;;;;;;5069781;28;20412;-58
2022/04/07 11:00:47;;;;;;;;;;;;;;;;;;5069724;28;19912;-57
2022/04/07 11:03:12;;;;;;;;;;;;;;;;;;5054025;28;19932;-58
2022/04/07 11:05:37;;;;;;;;;;;;;;;;;;5054371;28;19942;-55
2022/04/07 11:08:03;;;;;;;;;;;;;;;;;;5053974;28;19951;-57
2022/04/07 11:10:28;;;;;;;;;;;;;;;;;;5070482;28;20342;-57
2022/04/07 11:12:53;;;;;;;;;;;;;;;;;;5054012;28;20373;-57
2022/04/07 11:15:18;;;;;;;;;;;;;;;;;;5039836;28;20388;-57
2022/04/07 11:17:44;;;;;;;;;;;;;;;;;;5034070;28;20350;-57
2022/04/07 11:20:09;;;;;;;;;;;;;;;;;;5033946;28;19913;-57
2022/04/07 11:22:34;;;;;;;;;;;;;;;;;;5034624;28;19905;-57
2022/04/07 11:24:59;;;;;;;;;;;;;;;;;;5034281;28;19956;-57
2022/04/07 11:27:24;;;;;;;;;;;;;;;;;;5033817;28;19951;-57
2022/04/07 11:29:50;;;;;;;;;;;;;;;;;;5034145;28;19963;-57
2022/04/07 11:32:15;;;;;;;;;;;;;;;;;;5049830;28;19909;-57
2022/04/07 11:34:40;;;;;;;;;;;;;;;;;;5034209;28;19951;-57
2022/04/07 11:37:06;;;;;;;;;;;;;;;;;;5034479;28;19921;-57
2022/04/07 11:39:32;;;;;;;;;;;;;;;;;;5033122;28;20246;-58
2022/04/07 11:41:59;;;;;;;;;;;;;;;;;;5033999;28;19916;-57
2022/04/07 11:44:25;;;;;;;;;;;;;;;;;;5034059;28;20258;-57
2022/04/07 11:46:50;;;;;;;;;;;;;;;;;;5034010;28;20081;-57
2022/04/07 11:49:15;;;;;;;;;;;;;;;;;;5034088;28;20291;-57
2022/04/07 11:51:40;;;;;;;;;;;;;;;;;;5033679;28;20373;-58
2022/04/07 11:54:05;;;;;;;;;;;;;;;;;;5031375;28;20381;-57
2022/04/07 11:56:37;;;;;;;;;;;;;;;;;;5068632;28;19916;-57
2022/04/07 11:59:02;;;;;;;;;;;;;;;;;;5037440;28;20374;-58
2022/04/07 12:01:28;;;;;;;;;;;;;;;;;;5038683;28;19912;-57
2022/04/07 12:03:53;;;;;;;;;;;;;;;;;;5053310;28;19931;-57
2022/04/07 12:06:18;;;;;;;;;;;;;;;;;;5037844;28;19948;-57
2022/04/07 12:08:44;;;;;;;;;;;;;;;;;;5037809;28;19962;-57
2022/04/07 12:11:09;;;;;;;;;;;;;;;;;;5037346;28;19967;-57
2022/04/07 12:13:34;;;;;;;;;;;;;;;;;;5042184;28;19913;-57
2022/04/07 12:16:01;;;;;;;;;;;;;;;;;;5073408;28;19909;-57
2022/04/07 12:18:26;;;;;;;;;;;;;;;;;;5057296;28;19909;-56
2022/04/07 12:20:52;;;;;;;;;;;;;;;;;;5072938;28;19986;-56
2022/04/07 12:23:17;;;;;;;;;;;;;;;;;;5073071;28;19909;-56
2022/04/07 12:25:42;;;;;;;;;;;;;;;;;;5057493;28;19904;-59
2022/04/07 12:28:07;;;;;;;;;;;;;;;;;;5058267;28;19916;-56
2022/04/07 12:30:33;;;;;;;;;;;;;;;;;;5072768;28;20260;-56
2022/04/07 12:32:58;;;;;;;;;;;;;;;;;;5056577;28;19924;-56
2022/04/07 12:35:23;;;;;;;;;;;;;;;;;;5039287;28;19913;-56
2022/04/07 12:37:49;;;;;;;;;;;;;;;;;;5037345;28;19916;-56
2022/04/07 12:40:14;;;;;;;;;;;;;;;;;;5037272;28;19912;-56
2022/04/07 12:42:39;;;;;;;;;;;;;;;;;;5037161;28;19963;-56
2022/04/07 12:45:04;;;;;;;;;;;;;;;;;;5037177;28;19909;-56
2022/04/07 12:47:29;;;;;;;;;;;;;;;;;;5037528;28;20465;-56
2022/04/07 12:49:55;;;;;;;;;;;;;;;;;;5037253;28;20258;-58
2022/04/07 12:52:21;;;;;;;;;;;;;;;;;;5037136;28;20008;-57
2022/04/07 12:54:47;;;;;;;;;;;;;;;;;;5069146;28;19924;-57
2022/04/07 12:57:12;;;;;;;;;;;;;;;;;;5052688;28;19909;-58
2022/04/07 12:59:37;;;;;;;;;;;;;;;;;;5036787;28;19909;-57
2022/04/07 13:02:02;;;;;;;;;;;;;;;;;;5036467;28;19972;-58
2022/04/07 13:04:28;;;;;;;;;;;;;;;;;;5036493;28;20308;-57
2022/04/07 13:06:54;;;;;;;;;;;;;;;;;;5036132;28;19916;-57
2022/04/07 13:09:19;;;;;;;;;;;;;;;;;;5036424;28;19905;-57
2022/04/07 13:11:45;;;;;;;;;;;;;;;;;;5036293;28;19920;-56
2022/04/07 13:14:11;;;;;;;;;;;;;;;;;;5036615;28;19936;-57
2022/04/07 13:16:36;;;;;;;;;;;;;;;;;;5069150;28;19909;-57
2022/04/07 13:19:01;;;;;;;;;;;;;;;;;;5036428;28;20369;-57
2022/04/07 13:21:27;;;;;;;;;;;;;;;;;;5051809;28;19917;-57
2022/04/07 13:23:52;;;;;;;;;;;;;;;;;;5036780;28;19991;-57
2022/04/07 13:26:17;;;;;;;;;;;;;;;;;;5051768;28;19909;-57
2022/04/07 13:28:42;;;;;;;;;;;;;;;;;;5035982;28;19956;-57
2022/04/07 13:31:08;;;;;;;;;;;;;;;;;;5036205;28;20008;-57
2022/04/07 13:33:33;;;;;;;;;;;;;;;;;;5052951;28;19913;-56
2022/04/07 13:35:58;;;;;;;;;;;;;;;;;;5055835;28;20353;-57
2022/04/07 13:38:23;;;;;;;;;;;;;;;;;;5056102;28;20356;-57
2022/04/07 13:40:49;;;;;;;;;;;;;;;;;;5055961;28;19909;-57
2022/04/07 13:43:15;;;;;;;;;;;;;;;;;;5055950;28;19909;-57
2022/04/07 13:45:44;;;;;;;;;;;;;;;;;;5056227;28;20253;-57
2022/04/07 13:48:10;;;;;;;;;;;;;;;;;;5055510;28;20262;-57
2022/04/07 13:50:35;;;;;;;;;;;;;;;;;;5068512;28;20374;-56
2022/04/07 13:53:01;;;;;;;;;;;;;;;;;;5055713;28;19970;-56
2022/04/07 13:55:26;;;;;;;;;;;;;;;;;;5055608;28;20003;-56
2022/04/07 13:57:51;;;;;;;;;;;;;;;;;;5055957;28;19970;-56
2022/04/07 14:00:17;;;;;;;;;;;;;;;;;;5055609;28;19979;-57
2022/04/07 14:02:43;;;;;;;;;;;;;;;;;;5055284;28;20327;-56
2022/04/07 14:05:08;;;;;;;;;;;;;;;;;;5055510;28;19908;-57
2022/04/07 14:07:33;;;;;;;;;;;;;;;;;;5055401;28;20003;-56
2022/04/07 14:09:58;;;;;;;;;;;;;;;;;;5049582;28;19915;-56
2022/04/07 14:12:24;;;;;;;;;;;;;;;;;;5050860;28;19955;-57
2022/04/07 14:14:49;;;;;;;;;;;;;;;;;;5035630;28;19956;-58
2022/04/07 14:17:16;;;;;;;;;;;;;;;;;;5035379;28;20003;-57
2022/04/07 14:19:42;;;;;;;;;;;;;;;;;;5035510;28;19913;-57
2022/04/07 14:22:07;;;;;;;;;;;;;;;;;;5035270;28;19909;-57
2022/04/07 14:24:32;;;;;;;;;;;;;;;;;;5050591;28;19916;-58
2022/04/07 14:26:58;;;;;;;;;;;;;;;;;;5034898;28;19932;-57
2022/04/07 14:29:23;;;;;;;;;;;;;;;;;;5035028;28;19916;-57
2022/04/07 14:31:48;;;;;;;;;;;;;;;;;;5035387;28;19920;-57
2022/04/07 14:34:13;;;;;;;;;;;;;;;;;;5051104;28;19913;-57
2022/04/07 14:36:39;;;;;;;;;;;;;;;;;;5034751;28;20026;-58
2022/04/07 14:39:04;;;;;;;;;;;;;;;;;;5034871;28;19909;-57
2022/04/07 14:41:29;;;;;;;;;;;;;;;;;;5050614;28;19911;-58
2022/04/07 14:43:54;;;;;;;;;;;;;;;;;;5050529;28;20008;-58
2022/04/07 14:46:19;;;;;;;;;;;;;;;;;;5032640;28;19909;-58
2022/04/07 14:48:46;;;;;;;;;;;;;;;;;;5034825;28;20071;-59
2022/04/07 14:51:12;;;;;;;;;;;;;;;;;;5033708;28;20365;-58
2022/04/07 14:53:37;;;;;;;;;;;;;;;;;;5035307;28;19951;-62
2022/04/07 14:56:04;;;;;;;;;;;;;;;;;;5032267;28;19905;-58
2022/04/07 14:58:29;;;;;;;;;;;;;;;;;;5032068;28;20007;-57
2022/04/07 15:00:54;;;;;;;;;;;;;;;;;;5034683;28;20000;-58
2022/04/07 15:03:20;;;;;;;;;;;;;;;;;;5048855;28;20011;-58
2022/04/07 15:05:46;;;;;;;;;;;;;;;;;;5052083;28;20007;-58
2022/04/07 15:08:11;;;;;;;;;;;;;;;;;;5042173;28;19959;-58
2022/04/07 15:10:36;;;;;;;;;;;;;;;;;;5043914;28;20304;-58
2022/04/07 15:13:01;;;;;;;;;;;;;;;;;;5053928;28;19916;-58
2022/04/07 15:15:26;;;;;;;;;;;;;;;;;;5054004;28;19974;-58
2022/04/07 15:17:52;;;;;;;;;;;;;;;;;;5054195;28;20073;-58
2022/04/07 15:20:19;;;;;;;;;;;;;;;;;;5069728;28;19913;-58
2022/04/07 15:22:44;;;;;;;;;;;;;;;;;;5054489;28;19916;-58
2022/04/07 15:25:09;;;;;;;;;;;;;;;;;;5053911;28;19909;-58
2022/04/07 15:27:35;;;;;;;;;;;;;;;;;;5053908;28;20281;-58
2022/04/07 15:30:00;;;;;;;;;;;;;;;;;;5070293;28;20002;-58
2022/04/07 15:32:26;;;;;;;;;;;;;;;;;;5069151;28;20011;-57
2022/04/07 15:34:51;;;;;;;;;;;;;;;;;;5054436;28;19919;-58
2022/04/07 15:37:18;;;;;;;;;;;;;;;;;;5053984;28;19935;-58
2022/04/07 15:39:43;;;;;;;;;;;;;;;;;;5067101;28;19931;-58
2022/04/07 15:42:08;;;;;;;;;;;;;;;;;;5053627;28;19909;-59
2022/04/07 15:44:34;;;;;;;;;;;;;;;;;;5054020;28;19954;-57
2022/04/07 15:46:59;;;;;;;;;;;;;;;;;;5053760;28;19932;-57
2022/04/07 15:49:24;;;;;;;;;;;;;;;;;;5053587;28;19956;-57
2022/04/07 15:51:49;;;;;;;;;;;;;;;;;;5053806;28;20011;-57
2022/04/07 15:54:17;;;;;;;;;;;;;;;;;;5053855;28;19912;-57
2022/04/07 15:56:42;;;;;;;;;;;;;;;;;;5069474;28;19909;-57
2022/04/07 15:59:07;;;;;;;;;;;;;;;;;;5046438;28;19916;-61
2022/04/07 16:01:33;;;;;;;;;;;;;;;;;;5065890;28;19909;-57
2022/04/07 16:03:58;;;;;;;;;;;;;;;;;;5033827;28;19987;-57
2022/04/07 16:06:24;;;;;;;;;;;;;;;;;;5033241;28;20304;-57
2022/04/07 16:08:49;;;;;;;;;;;;;;;;;;5033426;28;20350;-57
2022/04/07 16:11:17;;;;;;;;;;;;;;;;;;5033674;28;19913;-58
2022/04/07 16:13:42;;;;;;;;;;;;;;;;;;5065735;28;19913;-57
2022/04/07 16:16:07;;;;;;;;;;;;;;;;;;5068540;28;19909;-58
2022/04/07 16:18:32;;;;;;;;;;;;;;;;;;5051094;28;19909;-59
2022/04/07 16:20:58;;;;;;;;;;;;;;;;;;5047224;28;20008;-58
2022/04/07 16:23:23;;;;;;;;;;;;;;;;;;5033903;28;19935;-57
2022/04/07 16:25:48;;;;;;;;;;;;;;;;;;5033635;28;19992;-57
2022/04/07 16:28:13;;;;;;;;;;;;;;;;;;5033650;28;19916;-57
2022/04/07 16:30:41;;;;;;;;;;;;;;;;;;5033627;28;20257;-57
2022/04/07 16:33:07;;;;;;;;;;;;;;;;;;5033284;28;19913;-56